sensor_id;sensor_type;location;lat;lon;timestamp;pressure;altitude;pressure_sealevel;temperature;humidity
4449;BME280;2237;51.870;6.160;2023-02-23T00:01:50;101139.34;;;11.55;100.00
4449;BME280;2237;51.870;6.160;2023-02-23T00:04:16;101138.56;;;11.52;100.00
4449;BME280;2237;51.870;6.160;2023-02-23T00:06:44;101138.66;;;11.47;100.00
4449;BME280;2237;51.870;6.160;2023-02-23T00:09:10;101140.31;;;11.51;100.00
4449;BME280;2237;51.870;6.160;2023-02-23T00:11:55;101146.53;;;11.46;100.00
4449;BME280;2237;51.870;6.160;2023-02-23T00:14:27;101144.91;;;11.40;100.00
4449;BME280;2237;51.870;6.160;2023-02-23T00:16:54;101145.22;;;11.23;100.00
4449;BME280;2237;51.870;6.160;2023-02-23T00:19:22;101143.66;;;11.15;100.00
4449;BME280;2237;51.870;6.160;2023-02-23T00:21:50;101151.66;;;11.06;100.00
4449;BME280;2237;51.870;6.160;2023-02-23T00:24:16;101140.56;;;10.95;100.00
4449;BME280;2237;51.870;6.160;2023-02-23T00:26:47;101138.25;;;10.81;100.00
4449;BME280;2237;51.870;6.160;2023-02-23T00:29:18;101134.66;;;10.87;100.00
4449;BME280;2237;51.870;6.160;2023-02-23T00:31:46;101142.47;;;10.87;100.00
4449;BME280;2237;51.870;6.160;2023-02-23T00:34:15;101135.53;;;10.87;100.00
4449;BME280;2237;51.870;6.160;2023-02-23T00:36:41;101140.13;;;10.71;100.00
4449;BME280;2237;51.870;6.160;2023-02-23T00:39:10;101143.28;;;10.89;100.00
4449;BME280;2237;51.870;6.160;2023-02-23T00:41:47;101135.34;;;10.96;100.00
4449;BME280;2237;51.870;6.160;2023-02-23T00:44:14;101143.19;;;10.95;100.00
4449;BME280;2237;51.870;6.160;2023-02-23T00:46:42;101136.34;;;10.91;100.00
4449;BME280;2237;51.870;6.160;2023-02-23T00:49:10;101141.38;;;11.00;100.00
4449;BME280;2237;51.870;6.160;2023-02-23T00:51:38;101137.81;;;11.04;100.00
4449;BME280;2237;51.870;6.160;2023-02-23T00:54:05;101135.94;;;11.10;100.00
4449;BME280;2237;51.870;6.160;2023-02-23T00:56:32;101142.09;;;11.06;100.00
4449;BME280;2237;51.870;6.160;2023-02-23T00:58:58;101145.38;;;11.16;100.00
4449;BME280;2237;51.870;6.160;2023-02-23T01:01:25;101142.72;;;11.19;100.00
4449;BME280;2237;51.870;6.160;2023-02-23T01:03:51;101146.31;;;11.13;100.00
4449;BME280;2237;51.870;6.160;2023-02-23T01:06:21;101141.00;;;11.18;100.00
4449;BME280;2237;51.870;6.160;2023-02-23T01:08:49;101136.63;;;11.20;100.00
4449;BME280;2237;51.870;6.160;2023-02-23T01:11:20;101137.38;;;11.25;100.00
4449;BME280;2237;51.870;6.160;2023-02-23T01:13:49;101133.97;;;11.23;100.00
4449;BME280;2237;51.870;6.160;2023-02-23T01:16:18;101134.72;;;11.26;100.00
4449;BME280;2237;51.870;6.160;2023-02-23T01:18:45;101143.38;;;11.30;100.00
4449;BME280;2237;51.870;6.160;2023-02-23T01:21:23;101138.91;;;11.35;100.00
4449;BME280;2237;51.870;6.160;2023-02-23T01:23:51;101148.50;;;11.33;100.00
4449;BME280;2237;51.870;6.160;2023-02-23T01:26:23;101138.97;;;11.32;100.00
4449;BME280;2237;51.870;6.160;2023-02-23T01:28:52;101137.22;;;11.32;100.00
4449;BME280;2237;51.870;6.160;2023-02-23T01:31:22;101151.06;;;11.38;100.00
4449;BME280;2237;51.870;6.160;2023-02-23T01:33:53;101137.22;;;11.34;100.00
4449;BME280;2237;51.870;6.160;2023-02-23T01:36:20;101142.66;;;11.22;100.00
4449;BME280;2237;51.870;6.160;2023-02-23T01:38:46;101137.63;;;11.13;100.00
4449;BME280;2237;51.870;6.160;2023-02-23T01:41:15;101132.47;;;11.10;100.00
4449;BME280;2237;51.870;6.160;2023-02-23T01:43:55;101135.91;;;11.12;100.00
4449;BME280;2237;51.870;6.160;2023-02-23T01:46:22;101139.31;;;11.15;100.00
4449;BME280;2237;51.870;6.160;2023-02-23T01:48:48;101135.94;;;11.10;100.00
4449;BME280;2237;51.870;6.160;2023-02-23T01:51:18;101138.59;;;11.07;100.00
4449;BME280;2237;51.870;6.160;2023-02-23T01:53:51;101137.75;;;11.07;100.00
4449;BME280;2237;51.870;6.160;2023-02-23T01:56:23;101143.88;;;11.04;100.00
4449;BME280;2237;51.870;6.160;2023-02-23T01:58:52;101141.38;;;11.00;100.00
4449;BME280;2237;51.870;6.160;2023-02-23T02:01:20;101137.84;;;11.01;100.00
4449;BME280;2237;51.870;6.160;2023-02-23T02:03:55;101140.53;;;10.98;100.00
4449;BME280;2237;51.870;6.160;2023-02-23T02:06:24;101146.59;;;11.00;100.00
4449;BME280;2237;51.870;6.160;2023-02-23T02:08:58;101145.72;;;10.99;100.00
4449;BME280;2237;51.870;6.160;2023-02-23T02:11:25;101149.25;;;10.97;100.00
4449;BME280;2237;51.870;6.160;2023-02-23T02:13:58;101157.06;;;10.97;100.00
4449;BME280;2237;51.870;6.160;2023-02-23T02:16:34;101150.00;;;11.02;100.00
4449;BME280;2237;51.870;6.160;2023-02-23T02:22:12;101153.38;;;11.07;100.00
4449;BME280;2237;51.870;6.160;2023-02-23T02:28:20;101145.72;;;10.99;100.00
4449;BME280;2237;51.870;6.160;2023-02-23T02:33:47;101151.97;;;10.89;100.00
4449;BME280;2237;51.870;6.160;2023-02-23T02:47:21;101140.47;;;11.01;100.00
4449;BME280;2237;51.870;6.160;2023-02-23T02:49:59;101144.03;;;10.95;100.00
4449;BME280;2237;51.870;6.160;2023-02-23T02:55:08;101142.41;;;10.90;100.00
4449;BME280;2237;51.870;6.160;2023-02-23T02:57:38;101141.56;;;10.89;100.00
4449;BME280;2237;51.870;6.160;2023-02-23T03:00:06;101139.72;;;10.94;100.00
4449;BME280;2237;51.870;6.160;2023-02-23T03:02:51;101134.38;;;11.00;100.00
4449;BME280;2237;51.870;6.160;2023-02-23T03:05:44;101138.72;;;11.01;100.00
4449;BME280;2237;51.870;6.160;2023-02-23T03:08:49;101153.38;;;11.07;100.00
4449;BME280;2237;51.870;6.160;2023-02-23T03:11:45;101147.31;;;11.06;100.00
4449;BME280;2237;51.870;6.160;2023-02-23T03:15:03;101140.69;;;10.90;100.00
4449;BME280;2237;51.870;6.160;2023-02-23T03:18:18;101143.13;;;10.98;100.00
4449;BME280;2237;51.870;6.160;2023-02-23T03:21:15;101140.53;;;10.98;100.00
4449;BME280;2237;51.870;6.160;2023-02-23T03:24:17;101149.91;;;11.08;100.00
4449;BME280;2237;51.870;6.160;2023-02-23T03:27:13;101144.63;;;11.11;100.00
4449;BME280;2237;51.870;6.160;2023-02-23T03:30:11;101152.56;;;11.05;100.00
4449;BME280;2237;51.870;6.160;2023-02-23T03:33:03;101141.44;;;10.97;100.00
4449;BME280;2237;51.870;6.160;2023-02-23T03:36:01;101158.75;;;10.99;100.00
4449;BME280;2237;51.870;6.160;2023-02-23T03:39:04;101157.94;;;10.94;100.00
4449;BME280;2237;51.870;6.160;2023-02-23T03:41:56;101156.38;;;10.86;100.00
4449;BME280;2237;51.870;6.160;2023-02-23T03:44:44;101154.63;;;10.88;100.00
4449;BME280;2237;51.870;6.160;2023-02-23T03:47:34;101159.03;;;10.83;100.00
4449;BME280;2237;51.870;6.160;2023-02-23T03:50:36;101155.56;;;10.84;100.00
4449;BME280;2237;51.870;6.160;2023-02-23T03:53:24;101155.44;;;10.90;100.00
4449;BME280;2237;51.870;6.160;2023-02-23T03:56:12;101159.28;;;10.70;100.00
4449;BME280;2237;51.870;6.160;2023-02-23T03:59:00;101165.53;;;10.60;100.00
4449;BME280;2237;51.870;6.160;2023-02-23T04:01:49;101157.59;;;10.68;100.00
4449;BME280;2237;51.870;6.160;2023-02-23T04:04:35;101157.41;;;10.78;100.00
4449;BME280;2237;51.870;6.160;2023-02-23T04:07:21;101155.56;;;10.84;100.00
4449;BME280;2237;51.870;6.160;2023-02-23T04:10:09;101164.25;;;10.83;100.00
4449;BME280;2237;51.870;6.160;2023-02-23T04:13:06;101169.53;;;10.80;100.00
4449;BME280;2237;51.870;6.160;2023-02-23T04:15:50;101167.88;;;10.75;100.00
4449;BME280;2237;51.870;6.160;2023-02-23T04:18:32;101169.69;;;10.70;100.00
4449;BME280;2237;51.870;6.160;2023-02-23T04:21:00;101179.34;;;10.64;100.00
4449;BME280;2237;51.870;6.160;2023-02-23T04:23:28;101177.81;;;10.51;100.00
4449;BME280;2237;51.870;6.160;2023-02-23T04:25:55;101184.91;;;10.44;100.00
4449;BME280;2237;51.870;6.160;2023-02-23T04:28:24;101187.38;;;10.52;100.00
4449;BME280;2237;51.870;6.160;2023-02-23T04:30:50;101196.13;;;10.46;100.00
4449;BME280;2237;51.870;6.160;2023-02-23T04:33:20;101193.44;;;10.52;100.00
4449;BME280;2237;51.870;6.160;2023-02-23T04:35:47;101181.28;;;10.51;100.00
4449;BME280;2237;51.870;6.160;2023-02-23T04:38:13;101194.22;;;10.57;100.00
4449;BME280;2237;51.870;6.160;2023-02-23T04:40:40;101181.19;;;10.59;100.00
4449;BME280;2237;51.870;6.160;2023-02-23T04:43:06;101184.63;;;10.59;100.00
4449;BME280;2237;51.870;6.160;2023-02-23T04:45:32;101190.66;;;10.63;100.00
4449;BME280;2237;51.870;6.160;2023-02-23T04:47:59;101181.91;;;10.65;100.00
4449;BME280;2237;51.870;6.160;2023-02-23T04:50:25;101181.88;;;10.68;100.00
4449;BME280;2237;51.870;6.160;2023-02-23T04:52:51;101192.31;;;10.67;100.00
4449;BME280;2237;51.870;6.160;2023-02-23T04:55:21;101188.91;;;10.65;100.00
4449;BME280;2237;51.870;6.160;2023-02-23T04:57:48;101187.97;;;10.67;100.00
4449;BME280;2237;51.870;6.160;2023-02-23T05:00:16;101194.84;;;10.71;100.00
4449;BME280;2237;51.870;6.160;2023-02-23T05:02:43;101197.44;;;10.71;100.00
4449;BME280;2237;51.870;6.160;2023-02-23T05:05:11;101200.00;;;10.76;100.00
4449;BME280;2237;51.870;6.160;2023-02-23T05:07:38;101195.56;;;10.81;100.00
4449;BME280;2237;51.870;6.160;2023-02-23T05:10:05;101202.53;;;10.79;100.00
4449;BME280;2237;51.870;6.160;2023-02-23T05:12:32;101204.34;;;10.74;100.00
4449;BME280;2237;51.870;6.160;2023-02-23T05:14:58;101201.63;;;10.82;100.00
4449;BME280;2237;51.870;6.160;2023-02-23T05:17:25;101193.09;;;10.73;100.00
4449;BME280;2237;51.870;6.160;2023-02-23T05:19:51;101205.16;;;10.77;100.00
4449;BME280;2237;51.870;6.160;2023-02-23T05:22:18;101207.66;;;10.84;100.00
4449;BME280;2237;51.870;6.160;2023-02-23T05:24:45;101200.50;;;10.96;100.00
4449;BME280;2237;51.870;6.160;2023-02-23T05:27:11;101205.78;;;10.92;100.00
4449;BME280;2237;51.870;6.160;2023-02-23T05:29:39;101201.47;;;10.91;100.00
4449;BME280;2237;51.870;6.160;2023-02-23T05:32:06;101206.69;;;10.89;100.00
4449;BME280;2237;51.870;6.160;2023-02-23T05:34:32;101208.31;;;10.96;100.00
4449;BME280;2237;51.870;6.160;2023-02-23T05:36:59;101211.03;;;10.89;100.00
4449;BME280;2237;51.870;6.160;2023-02-23T05:39:25;101213.06;;;10.71;100.00
4449;BME280;2237;51.870;6.160;2023-02-23T05:41:51;101211.47;;;10.64;100.00
4449;BME280;2237;51.870;6.160;2023-02-23T05:44:18;101219.28;;;10.64;100.00
4449;BME280;2237;51.870;6.160;2023-02-23T05:46:45;101216.69;;;10.64;100.00
4449;BME280;2237;51.870;6.160;2023-02-23T05:49:12;101215.09;;;10.56;100.00
4449;BME280;2237;51.870;6.160;2023-02-23T05:51:39;101213.44;;;10.49;100.00
4449;BME280;2237;51.870;6.160;2023-02-23T05:54:05;101209.94;;;10.51;100.00
4449;BME280;2237;51.870;6.160;2023-02-23T05:56:32;101213.03;;;10.74;100.00
4449;BME280;2237;51.870;6.160;2023-02-23T05:58:59;101212.09;;;10.78;100.00
4449;BME280;2237;51.870;6.160;2023-02-23T06:01:26;101213.88;;;10.75;100.00
4449;BME280;2237;51.870;6.160;2023-02-23T06:03:52;101217.31;;;10.78;100.00
4449;BME280;2237;51.870;6.160;2023-02-23T06:06:19;101219.09;;;10.75;100.00
4449;BME280;2237;51.870;6.160;2023-02-23T06:08:45;101224.94;;;10.91;100.00
4449;BME280;2237;51.870;6.160;2023-02-23T06:11:12;101223.19;;;10.91;100.00
4449;BME280;2237;51.870;6.160;2023-02-23T06:13:38;101227.38;;;10.98;100.00
4449;BME280;2237;51.870;6.160;2023-02-23T06:16:06;101221.34;;;10.96;100.00
4449;BME280;2237;51.870;6.160;2023-02-23T06:18:33;101224.78;;;10.98;100.00
4449;BME280;2237;51.870;6.160;2023-02-23T06:21:00;101226.72;;;10.86;100.00
4449;BME280;2237;51.870;6.160;2023-02-23T06:23:27;101227.50;;;10.92;100.00
4449;BME280;2237;51.870;6.160;2023-02-23T06:25:54;101233.50;;;10.96;100.00
4449;BME280;2237;51.870;6.160;2023-02-23T06:28:21;101224.75;;;11.00;100.00
4449;BME280;2237;51.870;6.160;2023-02-23T06:30:50;101238.63;;;11.02;100.00
4449;BME280;2237;51.870;6.160;2023-02-23T06:33:16;101238.72;;;10.96;100.00
4449;BME280;2237;51.870;6.160;2023-02-23T06:35:43;101242.25;;;10.92;100.00
4449;BME280;2237;51.870;6.160;2023-02-23T06:38:11;101241.47;;;10.87;100.00
4449;BME280;2237;51.870;6.160;2023-02-23T06:40:38;101244.38;;;10.70;100.00
4449;BME280;2237;51.870;6.160;2023-02-23T06:43:05;101249.63;;;10.67;100.00
4449;BME280;2237;51.870;6.160;2023-02-23T06:45:31;101247.94;;;10.64;100.00
4449;BME280;2237;51.870;6.160;2023-02-23T06:47:58;101256.53;;;10.69;100.00
4449;BME280;2237;51.870;6.160;2023-02-23T06:50:26;101264.25;;;10.74;100.00
4449;BME280;2237;51.870;6.160;2023-02-23T06:52:53;101259.97;;;10.71;100.00
4449;BME280;2237;51.870;6.160;2023-02-23T06:55:19;101260.88;;;10.69;100.00
4449;BME280;2237;51.870;6.160;2023-02-23T06:57:48;101263.56;;;10.64;100.00
4449;BME280;2237;51.870;6.160;2023-02-23T07:00:14;101266.16;;;10.64;100.00
4449;BME280;2237;51.870;6.160;2023-02-23T07:02:42;101264.44;;;10.65;100.00
4449;BME280;2237;51.870;6.160;2023-02-23T07:05:10;101270.47;;;10.65;100.00
4449;BME280;2237;51.870;6.160;2023-02-23T07:07:36;101269.59;;;10.66;100.00
4449;BME280;2237;51.870;6.160;2023-02-23T07:10:04;101264.44;;;10.65;100.00
4449;BME280;2237;51.870;6.160;2023-02-23T07:12:31;101273.03;;;10.70;100.00
4449;BME280;2237;51.870;6.160;2023-02-23T07:14:57;101272.78;;;10.84;100.00
4449;BME280;2237;51.870;6.160;2023-02-23T07:17:23;101279.66;;;10.91;100.00
4449;BME280;2237;51.870;6.160;2023-02-23T07:19:50;101283.06;;;10.93;100.00
4449;BME280;2237;51.870;6.160;2023-02-23T07:22:16;101294.41;;;10.90;100.00
4449;BME280;2237;51.870;6.160;2023-02-23T07:24:42;101290.06;;;10.91;100.00
4449;BME280;2237;51.870;6.160;2023-02-23T07:27:08;101296.09;;;10.93;100.00
4449;BME280;2237;51.870;6.160;2023-02-23T07:29:35;101296.91;;;10.96;100.00
4449;BME280;2237;51.870;6.160;2023-02-23T07:32:01;101299.47;;;10.99;100.00
4449;BME280;2237;51.870;6.160;2023-02-23T07:34:28;101309.91;;;10.98;100.00
4449;BME280;2237;51.870;6.160;2023-02-23T07:36:54;101316.03;;;10.97;100.00
4449;BME280;2237;51.870;6.160;2023-02-23T07:39:21;101317.78;;;10.95;100.00
4449;BME280;2237;51.870;6.160;2023-02-23T07:41:47;101319.50;;;10.96;100.00
4449;BME280;2237;51.870;6.160;2023-02-23T07:44:13;101318.53;;;11.03;100.00
4449;BME280;2237;51.870;6.160;2023-02-23T07:46:40;101315.94;;;11.03;100.00
4449;BME280;2237;51.870;6.160;2023-02-23T07:49:06;101315.94;;;11.03;100.00
4449;BME280;2237;51.870;6.160;2023-02-23T07:51:33;101327.19;;;11.03;100.00
4449;BME280;2237;51.870;6.160;2023-02-23T07:54:03;101327.19;;;11.03;100.00
4449;BME280;2237;51.870;6.160;2023-02-23T07:56:30;101328.09;;;11.01;100.00
4449;BME280;2237;51.870;6.160;2023-02-23T07:58:56;101330.75;;;10.99;100.00
4449;BME280;2237;51.870;6.160;2023-02-23T08:01:23;101338.53;;;11.02;100.00
4449;BME280;2237;51.870;6.160;2023-02-23T08:03:49;101330.84;;;10.92;100.00
4449;BME280;2237;51.870;6.160;2023-02-23T08:06:17;101344.09;;;10.78;100.00
4449;BME280;2237;51.870;6.160;2023-02-23T08:08:44;101343.31;;;10.71;100.00
4449;BME280;2237;51.870;6.160;2023-02-23T08:11:11;101341.53;;;10.76;100.00
4449;BME280;2237;51.870;6.160;2023-02-23T08:13:37;101350.22;;;10.75;100.00
4449;BME280;2237;51.870;6.160;2023-02-23T08:16:04;101352.03;;;10.70;100.00
4449;BME280;2237;51.870;6.160;2023-02-23T08:18:31;101342.38;;;10.77;100.00
4449;BME280;2237;51.870;6.160;2023-02-23T08:21:01;101348.44;;;10.77;100.00
4449;BME280;2237;51.870;6.160;2023-02-23T08:23:29;101349.91;;;10.97;100.00
4449;BME280;2237;51.870;6.160;2023-02-23T08:25:56;101349.19;;;10.86;100.00
4449;BME280;2237;51.870;6.160;2023-02-23T08:28:23;101356.22;;;10.81;100.00
4449;BME280;2237;51.870;6.160;2023-02-23T08:30:50;101349.28;;;10.81;100.00
4449;BME280;2237;51.870;6.160;2023-02-23T08:33:16;101353.78;;;10.70;100.00
4449;BME280;2237;51.870;6.160;2023-02-23T08:35:43;101358.09;;;10.72;100.00
4449;BME280;2237;51.870;6.160;2023-02-23T08:38:10;101356.22;;;10.81;100.00
4449;BME280;2237;51.870;6.160;2023-02-23T08:40:36;101358.72;;;10.87;100.00
4449;BME280;2237;51.870;6.160;2023-02-23T08:43:03;101358.81;;;10.82;100.00
4449;BME280;2237;51.870;6.160;2023-02-23T08:45:29;101352.91;;;10.69;100.00
4449;BME280;2237;51.870;6.160;2023-02-23T08:47:55;101360.56;;;10.82;100.00
4449;BME280;2237;51.870;6.160;2023-02-23T08:50:22;101365.81;;;10.78;100.00
4449;BME280;2237;51.870;6.160;2023-02-23T08:52:52;101368.88;;;11.05;100.00
4449;BME280;2237;51.870;6.160;2023-02-23T08:55:19;101364.34;;;11.16;100.00
4449;BME280;2237;51.870;6.160;2023-02-23T08:57:46;101371.97;;;11.28;100.00
4449;BME280;2237;51.870;6.160;2023-02-23T09:00:13;101365.75;;;11.37;100.00
4449;BME280;2237;51.870;6.160;2023-02-23T09:02:43;101369.19;;;11.40;100.00
4449;BME280;2237;51.870;6.160;2023-02-23T09:05:10;101369.94;;;11.45;100.00
4449;BME280;2237;51.870;6.160;2023-02-23T09:07:38;101375.28;;;11.39;100.00
4449;BME280;2237;51.870;6.160;2023-02-23T09:10:05;101381.34;;;11.38;100.00
4449;BME280;2237;51.870;6.160;2023-02-23T09:12:32;101377.72;;;11.48;100.00
4449;BME280;2237;51.870;6.160;2023-02-23T09:14:58;101380.22;;;11.54;100.00
4449;BME280;2237;51.870;6.160;2023-02-23T09:17:25;101380.03;;;11.66;100.00
4449;BME280;2237;51.870;6.160;2023-02-23T09:19:51;101382.56;;;11.72;100.00
4449;BME280;2237;51.870;6.160;2023-02-23T09:22:18;101375.63;;;11.70;100.00
4449;BME280;2237;51.870;6.160;2023-02-23T09:24:45;101394.75;;;11.67;100.00
4449;BME280;2237;51.870;6.160;2023-02-23T09:27:11;101382.75;;;11.59;100.00
4449;BME280;2237;51.870;6.160;2023-02-23T09:29:38;101383.59;;;11.59;100.00
4449;BME280;2237;51.870;6.160;2023-02-23T09:32:09;101390.66;;;11.54;100.00
4449;BME280;2237;51.870;6.160;2023-02-23T09:34:36;101391.28;;;11.67;100.00
4449;BME280;2237;51.870;6.160;2023-02-23T09:37:04;101399.91;;;11.73;100.00
4449;BME280;2237;51.870;6.160;2023-02-23T09:39:30;101395.25;;;11.90;100.00
4449;BME280;2237;51.870;6.160;2023-02-23T09:42:19;101399.13;;;12.16;100.00
4449;BME280;2237;51.870;6.160;2023-02-23T09:50:24;101414.56;;;12.26;100.00
4449;BME280;2237;51.870;6.160;2023-02-23T09:56:04;101415.41;;;11.84;100.00
4449;BME280;2237;51.870;6.160;2023-02-23T09:58:33;101418.81;;;11.86;100.00
4449;BME280;2237;51.870;6.160;2023-02-23T10:06:53;101414.63;;;11.77;100.00
4449;BME280;2237;51.870;6.160;2023-02-23T10:14:54;101429.16;;;11.92;100.00
4449;BME280;2237;51.870;6.160;2023-02-23T10:17:31;101415.91;;;12.03;100.00
4449;BME280;2237;51.870;6.160;2023-02-23T10:23:10;101422.31;;;12.31;100.00
4449;BME280;2237;51.870;6.160;2023-02-23T10:25:43;101418.63;;;12.41;100.00
4449;BME280;2237;51.870;6.160;2023-02-23T10:28:15;101414.91;;;12.51;100.00
4449;BME280;2237;51.870;6.160;2023-02-23T10:30:43;101421.88;;;12.52;100.00
4449;BME280;2237;51.870;6.160;2023-02-23T10:33:14;101420.06;;;12.56;100.00
4449;BME280;2237;51.870;6.160;2023-02-23T10:35:44;101415.84;;;12.50;100.00
4449;BME280;2237;51.870;6.160;2023-02-23T10:38:14;101419.63;;;12.35;100.00
4449;BME280;2237;51.870;6.160;2023-02-23T10:40:42;101422.47;;;12.23;100.00
4449;BME280;2237;51.870;6.160;2023-02-23T10:43:10;101415.31;;;12.33;100.00
4449;BME280;2237;51.870;6.160;2023-02-23T10:45:51;101431.81;;;12.33;100.00
4449;BME280;2237;51.870;6.160;2023-02-23T10:48:21;101426.59;;;12.35;100.00
4449;BME280;2237;51.870;6.160;2023-02-23T10:50:53;101435.94;;;12.46;100.00
4449;BME280;2237;51.870;6.160;2023-02-23T10:53:25;101430.66;;;12.48;100.00
4449;BME280;2237;51.870;6.160;2023-02-23T10:56:07;101434.81;;;12.57;100.00
4449;BME280;2237;51.870;6.160;2023-02-23T10:58:44;101439.34;;;12.50;100.00
4449;BME280;2237;51.870;6.160;2023-02-23T11:01:14;101448.00;;;12.52;100.00
4449;BME280;2237;51.870;6.160;2023-02-23T11:03:44;101450.66;;;12.49;100.00
4449;BME280;2237;51.870;6.160;2023-02-23T11:06:34;101441.03;;;12.53;100.00
4449;BME280;2237;51.870;6.160;2023-02-23T11:09:27;101445.31;;;12.11;100.00
4449;BME280;2237;51.870;6.160;2023-02-23T11:14:52;101443.78;;;12.01;100.00
4449;BME280;2237;51.870;6.160;2023-02-23T11:19:50;101440.22;;;12.05;100.00
4449;BME280;2237;51.870;6.160;2023-02-23T11:22:23;101443.91;;;11.95;100.00
4449;BME280;2237;51.870;6.160;2023-02-23T11:24:52;101440.63;;;11.83;100.00
4449;BME280;2237;51.870;6.160;2023-02-23T11:27:22;101434.97;;;12.06;100.00
4449;BME280;2237;51.870;6.160;2023-02-23T11:29:50;101430.53;;;12.11;100.00
4449;BME280;2237;51.870;6.160;2023-02-23T11:32:28;101433.13;;;12.13;100.00
4449;BME280;2237;51.870;6.160;2023-02-23T11:37:41;101422.34;;;12.28;100.00
4449;BME280;2237;51.870;6.160;2023-02-23T11:40:27;101425.13;;;12.20;100.00
4449;BME280;2237;51.870;6.160;2023-02-23T11:43:11;101422.09;;;11.97;100.00
4449;BME280;2237;51.870;6.160;2023-02-23T11:45:51;101432.19;;;11.69;100.00
4449;BME280;2237;51.870;6.160;2023-02-23T11:48:20;101430.63;;;11.56;100.00
4449;BME280;2237;51.870;6.160;2023-02-23T11:50:48;101432.50;;;11.48;100.00
4449;BME280;2237;51.870;6.160;2023-02-23T11:53:17;101427.69;;;11.76;100.00
4449;BME280;2237;51.870;6.160;2023-02-23T11:55:46;101417.97;;;11.85;100.00
4449;BME280;2237;51.870;6.160;2023-02-23T11:58:25;101434.50;;;11.84;100.00
4449;BME280;2237;51.870;6.160;2023-02-23T12:01:02;101431.63;;;12.00;100.00
4449;BME280;2237;51.870;6.160;2023-02-23T12:03:32;101422.06;;;11.99;100.00
4449;BME280;2237;51.870;6.160;2023-02-23T12:05:59;101428.78;;;12.12;100.00
4449;BME280;2237;51.870;6.160;2023-02-23T12:08:39;101425.66;;;12.39;100.00
4449;BME280;2237;51.870;6.160;2023-02-23T12:11:15;101423.03;;;12.37;100.00
4449;BME280;2237;51.870;6.160;2023-02-23T12:13:46;101430.13;;;12.32;100.00
4449;BME280;2237;51.870;6.160;2023-02-23T12:18:49;101424.50;;;12.08;100.00
4449;BME280;2237;51.870;6.160;2023-02-23T12:24:12;101423.56;;;12.10;100.00
4449;BME280;2237;51.870;6.160;2023-02-23T12:26:56;101426.28;;;12.06;100.00
4449;BME280;2237;51.870;6.160;2023-02-23T12:29:42;101419.44;;;11.99;100.00
4449;BME280;2237;51.870;6.160;2023-02-23T12:32:17;101418.72;;;11.90;100.00
4449;BME280;2237;51.870;6.160;2023-02-23T12:34:57;101433.09;;;11.64;100.00
4449;BME280;2237;51.870;6.160;2023-02-23T12:37:37;101421.75;;;11.69;100.00
4449;BME280;2237;51.870;6.160;2023-02-23T12:40:09;101431.16;;;11.76;100.00
4449;BME280;2237;51.870;6.160;2023-02-23T12:42:39;101425.03;;;11.80;100.00
4449;BME280;2237;51.870;6.160;2023-02-23T12:45:14;101433.88;;;11.72;100.00
4449;BME280;2237;51.870;6.160;2023-02-23T12:47:48;101429.44;;;11.75;100.00
4449;BME280;2237;51.870;6.160;2023-02-23T12:52:52;101431.50;;;12.06;100.00
4449;BME280;2237;51.870;6.160;2023-02-23T12:55:48;101433.19;;;12.10;100.00
4449;BME280;2237;51.870;6.160;2023-02-23T12:58:28;101429.81;;;12.02;100.00
4449;BME280;2237;51.870;6.160;2023-02-23T13:01:05;101432.00;;;11.78;100.00
4449;BME280;2237;51.870;6.160;2023-02-23T13:03:42;101431.72;;;11.94;100.00
4449;BME280;2237;51.870;6.160;2023-02-23T13:12:05;101429.06;;;11.97;100.00
4449;BME280;2237;51.870;6.160;2023-02-23T13:14:52;101425.41;;;12.07;100.00
4449;BME280;2237;51.870;6.160;2023-02-23T13:17:39;101415.09;;;11.99;100.00
4449;BME280;2237;51.870;6.160;2023-02-23T13:23:07;101427.47;;;11.89;100.00
4449;BME280;2237;51.870;6.160;2023-02-23T13:26:22;101422.41;;;11.80;100.00
4449;BME280;2237;51.870;6.160;2023-02-23T13:28:51;101423.41;;;11.73;100.00
4449;BME280;2237;51.870;6.160;2023-02-23T13:31:28;101425.19;;;11.68;100.00
4449;BME280;2237;51.870;6.160;2023-02-23T13:33:57;101432.19;;;11.69;100.00
4449;BME280;2237;51.870;6.160;2023-02-23T13:36:26;101424.47;;;11.59;100.00
4449;BME280;2237;51.870;6.160;2023-02-23T13:39:27;101424.38;;;11.66;100.00
4449;BME280;2237;51.870;6.160;2023-02-23T13:44:44;101426.56;;;11.39;100.00
4449;BME280;2237;51.870;6.160;2023-02-23T13:50:00;101425.78;;;11.32;100.00
4449;BME280;2237;51.870;6.160;2023-02-23T13:52:37;101427.38;;;11.42;100.00
4449;BME280;2237;51.870;6.160;2023-02-23T13:55:32;101428.34;;;11.37;100.00
4449;BME280;2237;51.870;6.160;2023-02-23T13:58:25;101433.81;;;11.20;100.00
4449;BME280;2237;51.870;6.160;2023-02-23T14:01:15;101431.34;;;11.09;100.00
4449;BME280;2237;51.870;6.160;2023-02-23T14:03:45;101431.28;;;11.15;100.00
4449;BME280;2237;51.870;6.160;2023-02-23T14:06:14;101429.53;;;11.16;100.00
4449;BME280;2237;51.870;6.160;2023-02-23T14:08:44;101424.13;;;11.26;100.00
4449;BME280;2237;51.870;6.160;2023-02-23T14:11:27;101431.13;;;11.26;100.00
4449;BME280;2237;51.870;6.160;2023-02-23T14:14:00;101428.44;;;11.30;100.00
4449;BME280;2237;51.870;6.160;2023-02-23T14:16:27;101430.91;;;11.40;100.00
4449;BME280;2237;51.870;6.160;2023-02-23T14:19:36;101427.44;;;11.39;100.00
4449;BME280;2237;51.870;6.160;2023-02-23T14:22:15;101426.50;;;11.43;100.00
4449;BME280;2237;51.870;6.160;2023-02-23T14:24:43;101430.66;;;11.53;100.00
4449;BME280;2237;51.870;6.160;2023-02-23T14:37:59;101438.97;;;11.24;100.00
4449;BME280;2237;51.870;6.160;2023-02-23T14:40:37;101446.69;;;11.30;100.00
4449;BME280;2237;51.870;6.160;2023-02-23T14:43:29;101442.25;;;11.35;100.00
4449;BME280;2237;51.870;6.160;2023-02-23T14:45:57;101444.84;;;11.37;100.00
4449;BME280;2237;51.870;6.160;2023-02-23T14:48:26;101440.44;;;11.41;100.00
4449;BME280;2237;51.870;6.160;2023-02-23T14:51:09;101453.59;;;11.34;100.00
4449;BME280;2237;51.870;6.160;2023-02-23T14:53:41;101453.78;;;11.21;100.00
4449;BME280;2237;51.870;6.160;2023-02-23T14:56:19;101458.34;;;11.07;100.00